Airfield :
LOGIN :

Register | Disclaimer

   EN    FR    IT 

 










Legend :    VFR   Marginal VFR   IFR   Intensive IFR   Very Intensive IFR
Visi :
Ceiling :
>= 8 km
>= 3000ft
5 to 8 km
1000 to 3000 ft
1500m to 5 km
500 to 1000 ft
800 to 1500m
200 to 500 ft
< 800m
< 200 ft
Symbols :   Thunderstorms  Fog  Heavy snow  Heavy precipitations  Wind > 20 kt
SIGMETs :     Misc.  Thunderstorms  Icing  Turbulence  Mountain Waves  Volcanic Ashes






- Airport Elevation : 49 ft
- IATA code : GLZ


EHGR - Gilze-Rijen Airbase

CURRENT METAR :
  • 280917Z AUTO 29004KT 270V340 4100 BR OVC170 04/03 Q0998 GRN

EXPIRED METARs :
  • 280855Z AUTO 28004KT 260V320 2300 BR SCT016 BKN054 03/03 Q0998 YLO
  • 280836Z AUTO 29004KT 1700 BR FEW016 SCT190 03/02 Q0998 YLO
  • 280825Z AUTO 28004KT 1800 BR FEW016 OVC150 02/02 Q0997 YLO
  • 280816Z AUTO 29005KT 200V310 1300 BR FEW016 OVC150 02/01 Q0997 AMB
  • 280803Z AUTO 29005KT 1000 BR OVC150 01/01 Q0997 AMB
  • 280755Z AUTO 29004KT 0200 FG SCT110 OVC160 02/01 Q0997 RED
  • 280741Z AUTO 28004KT 0750 FG BKN017 01/01 Q0997 RED
  • 280725Z AUTO VRB03KT 0550 FG BKN019 02/02 Q0997 RED
  • 280701Z AUTO 30003KT 280V340 1400 BR BKN020 02/02 Q0997 BLACKAMB
  • 280625Z AUTO VRB02KT 2300 BR OVC022 03/02 Q0996 BLACKYLO

Expired Forecast.



MET'MAP, your aeronautical weather chart ! - Copyright ORBIFLY December 2007 - Disclaimer

ORBIFLY MET'MAP TEAM :

Programming & Development : Alexandra Zaïnal
Concept & original design : Baudouin d'Aumeries
Assistance for programming : Marc-Olivier Méhu
Technical & hardware support : Manuel Goepfert

Contact : metmap@orbifly.com




SOURCES & CREDITS :

   NOAA